createdAt,value
2018-12-08T00:01:00.065Z,11.81
2018-12-08T00:03:29.212Z,11.80
2018-12-08T00:06:17.037Z,11.80
2018-12-08T00:08:46.113Z,11.78
2018-12-08T00:11:15.165Z,11.78
2018-12-08T00:13:44.211Z,11.78
2018-12-08T00:16:13.403Z,11.77
2018-12-08T00:18:42.365Z,11.77
2018-12-08T00:21:11.424Z,11.77
2018-12-08T00:23:40.490Z,11.76
2018-12-08T00:26:11.118Z,11.73
2018-12-08T00:28:38.598Z,11.75
2018-12-08T00:31:19.613Z,11.73
2018-12-08T00:33:48.648Z,11.72
2018-12-08T00:36:17.703Z,11.73
2018-12-08T00:38:46.857Z,11.71
2018-12-08T00:41:15.818Z,11.71
2018-12-08T00:43:44.875Z,11.70
2018-12-08T00:46:13.936Z,11.69
2018-12-08T00:48:42.979Z,11.68
2018-12-08T00:51:12.044Z,11.66
2018-12-08T00:53:41.123Z,11.65
2018-12-08T00:56:10.171Z,11.64
2018-12-08T00:58:39.204Z,11.63
2018-12-08T01:01:08.269Z,11.64
2018-12-08T01:03:37.315Z,11.62
2018-12-08T01:06:06.361Z,11.64
2018-12-08T01:08:35.441Z,11.64
2018-12-08T01:11:04.470Z,11.64
2018-12-08T01:13:33.501Z,11.65
2018-12-08T01:16:02.591Z,11.64
2018-12-08T01:18:31.640Z,11.64
2018-12-08T01:21:00.689Z,11.62
2018-12-08T01:23:29.770Z,11.63
2018-12-08T01:25:58.801Z,11.64
2018-12-08T01:28:27.842Z,11.64
2018-12-08T01:30:56.915Z,11.62
2018-12-08T01:33:25.959Z,11.61
2018-12-08T01:35:55.002Z,11.61
2018-12-08T01:38:24.184Z,11.63
2018-12-08T01:40:53.237Z,11.62
2018-12-08T01:43:22.283Z,11.62
2018-12-08T01:45:51.364Z,11.61
2018-12-08T01:48:20.413Z,11.62
2018-12-08T01:50:49.466Z,11.61
2018-12-08T01:53:18.537Z,11.61
2018-12-08T01:55:47.573Z,11.58
2018-12-08T01:58:16.633Z,11.59
2018-12-08T02:00:45.734Z,11.58
2018-12-08T02:03:14.788Z,11.58
2018-12-08T02:05:43.832Z,11.57
2018-12-08T02:08:12.904Z,11.57
2018-12-08T02:10:41.960Z,11.57
2018-12-08T02:13:10.997Z,11.60
2018-12-08T02:15:40.143Z,11.60
2018-12-08T02:18:09.199Z,11.60
2018-12-08T02:20:38.252Z,11.60
2018-12-08T02:23:07.363Z,11.58
2018-12-08T02:25:36.410Z,11.60
2018-12-08T02:28:05.466Z,11.60
2018-12-08T02:30:34.549Z,11.66
2018-12-08T02:33:03.600Z,11.66
2018-12-08T02:35:32.640Z,11.65
2018-12-08T02:38:01.708Z,11.68
2018-12-08T02:40:30.768Z,11.69
2018-12-08T02:42:59.824Z,11.69
2018-12-08T02:45:28.918Z,11.69
2018-12-08T02:47:57.962Z,11.68
2018-12-08T02:50:27.010Z,11.69
2018-12-08T02:52:56.076Z,11.70
2018-12-08T02:55:33.556Z,11.69
2018-12-08T02:58:02.622Z,11.68
2018-12-08T03:00:31.704Z,11.69
2018-12-08T03:03:00.757Z,11.69
2018-12-08T03:05:29.844Z,11.68
2018-12-08T03:07:58.894Z,11.67
2018-12-08T03:10:27.935Z,11.67
2018-12-08T03:12:56.998Z,11.67
2018-12-08T03:15:26.056Z,11.64
2018-12-08T03:17:55.102Z,11.65
2018-12-08T03:20:24.176Z,11.66
2018-12-08T03:22:53.230Z,11.66
2018-12-08T03:25:22.283Z,11.65
2018-12-08T03:27:51.481Z,11.63
2018-12-08T03:30:20.523Z,11.62
2018-12-08T03:32:49.569Z,11.61
2018-12-08T03:35:19.662Z,11.62
2018-12-08T03:37:48.712Z,11.61
2018-12-08T03:40:17.877Z,11.60
2018-12-08T03:42:46.830Z,11.60
2018-12-08T03:45:23.074Z,11.59
2018-12-08T03:47:52.183Z,11.59
2018-12-08T03:50:21.227Z,11.60
2018-12-08T03:52:50.277Z,11.56
2018-12-08T03:55:19.348Z,11.56
2018-12-08T03:57:48.393Z,11.55
2018-12-08T04:00:17.449Z,11.52
2018-12-08T04:02:46.526Z,11.51
2018-12-08T04:08:19.948Z,11.48
2018-12-08T04:10:49.060Z,11.46
2018-12-08T04:13:18.038Z,11.42
2018-12-08T04:15:47.111Z,11.42
2018-12-08T04:18:16.171Z,11.42
2018-12-08T04:20:45.227Z,11.41
2018-12-08T04:23:14.295Z,11.40
2018-12-08T04:25:43.349Z,11.40
2018-12-08T04:28:12.390Z,11.39
2018-12-08T04:30:41.490Z,11.38
2018-12-08T04:33:10.541Z,11.38
2018-12-08T04:35:39.597Z,11.36
2018-12-08T04:38:08.681Z,11.32
2018-12-08T04:40:37.711Z,11.19
2018-12-08T04:43:07.690Z,11.01
2018-12-08T04:45:36.921Z,10.82
2018-12-08T04:48:05.959Z,10.64
2018-12-08T04:50:35.012Z,10.55
2018-12-08T04:53:04.216Z,10.45
2018-12-08T04:55:33.279Z,10.38
2018-12-08T04:58:02.312Z,10.31
2018-12-08T05:00:31.376Z,10.24
2018-12-08T05:03:00.500Z,10.08
2018-12-08T05:05:29.536Z,9.99
2018-12-08T05:07:58.596Z,9.95
2018-12-08T05:10:27.640Z,9.88
2018-12-08T05:12:56.671Z,9.84
2018-12-08T05:15:27.758Z,9.82
2018-12-08T05:17:56.809Z,9.77
2018-12-08T05:20:25.849Z,9.73
2018-12-08T05:22:54.923Z,9.59
2018-12-08T05:25:23.962Z,9.51
2018-12-08T05:27:53.001Z,9.46
2018-12-08T05:30:22.307Z,9.35
2018-12-08T05:32:51.333Z,9.28
2018-12-08T05:35:33.931Z,9.15
2018-12-08T05:38:02.956Z,9.14
2018-12-08T05:40:31.985Z,9.12
2018-12-08T05:43:01.293Z,9.07
2018-12-08T05:45:30.337Z,9.02
2018-12-08T05:47:59.390Z,9.00
2018-12-08T05:50:28.446Z,8.99
2018-12-08T05:52:57.502Z,8.96
2018-12-08T05:55:31.932Z,8.87
2018-12-08T05:58:00.965Z,8.87
2018-12-08T06:00:30.009Z,8.85
2018-12-08T06:02:59.078Z,8.85
2018-12-08T06:05:28.114Z,8.81
2018-12-08T06:07:58.681Z,8.79
2018-12-08T06:10:26.224Z,8.78
2018-12-08T06:12:55.368Z,8.78
2018-12-08T06:15:24.342Z,8.71
2018-12-08T06:17:53.431Z,8.71
2018-12-08T06:20:22.473Z,8.72
2018-12-08T06:22:51.493Z,8.70
2018-12-08T06:25:20.570Z,8.67
2018-12-08T06:27:49.613Z,8.62
2018-12-08T06:32:51.362Z,8.62
2018-12-08T06:35:20.397Z,8.63
2018-12-08T06:37:49.435Z,8.62
2018-12-08T06:40:18.527Z,8.65
2018-12-08T06:42:47.571Z,8.62
2018-12-08T06:45:16.615Z,8.63
2018-12-08T06:47:45.702Z,8.61
2018-12-08T06:50:14.749Z,8.62
2018-12-08T06:52:43.799Z,8.62
2018-12-08T06:55:13.075Z,8.61
2018-12-08T06:57:42.134Z,8.66
2018-12-08T07:00:11.174Z,8.64
2018-12-08T07:02:40.269Z,8.65
2018-12-08T07:05:09.333Z,8.67
2018-12-08T07:07:38.391Z,8.70
2018-12-08T07:10:07.475Z,8.69
2018-12-08T07:12:36.541Z,8.72
2018-12-08T07:15:05.641Z,8.72
2018-12-08T07:17:34.708Z,8.74
2018-12-08T07:20:03.778Z,8.71
2018-12-08T07:22:32.857Z,8.73
2018-12-08T07:25:10.609Z,8.74
2018-12-08T07:27:39.643Z,8.73
2018-12-08T07:30:08.679Z,8.76
2018-12-08T07:32:38.958Z,8.73
2018-12-08T07:35:06.812Z,8.75
2018-12-08T07:37:35.853Z,8.71
2018-12-08T07:40:04.922Z,8.75
2018-12-08T07:42:33.995Z,8.77
2018-12-08T07:45:08.236Z,8.78
2018-12-08T07:47:37.279Z,8.76
2018-12-08T07:50:06.313Z,8.77
2018-12-08T07:52:35.399Z,8.78
2018-12-08T07:55:04.456Z,8.78
2018-12-08T07:57:33.497Z,8.81
2018-12-08T08:00:04.524Z,8.82
2018-12-08T08:02:31.645Z,8.81
2018-12-08T08:05:00.693Z,8.78
2018-12-08T08:07:29.789Z,8.79
2018-12-08T08:09:58.847Z,8.83
2018-12-08T08:12:27.890Z,8.89
2018-12-08T08:14:56.966Z,8.87
2018-12-08T08:17:26.016Z,8.86
2018-12-08T08:19:55.049Z,8.85
2018-12-08T08:22:24.122Z,8.89
2018-12-08T08:24:53.181Z,8.90
2018-12-08T08:27:22.271Z,8.93
2018-12-08T08:29:51.365Z,8.85
2018-12-08T08:32:20.426Z,8.86
2018-12-08T08:34:49.480Z,8.89
2018-12-08T08:37:18.569Z,8.92
2018-12-08T08:39:47.601Z,8.91
2018-12-08T08:42:16.640Z,8.96
2018-12-08T08:44:45.718Z,8.98
2018-12-08T08:47:14.764Z,8.98
2018-12-08T08:49:43.794Z,8.95
2018-12-08T08:52:12.878Z,8.96
2018-12-08T08:54:41.923Z,8.98
2018-12-08T08:57:10.961Z,8.99
2018-12-08T08:59:40.339Z,9.03
2018-12-08T09:02:09.384Z,9.00
2018-12-08T09:04:38.415Z,9.03
2018-12-08T09:07:07.481Z,9.04
2018-12-08T09:09:36.515Z,9.06
2018-12-08T09:12:05.549Z,9.06
2018-12-08T09:14:34.632Z,9.08
2018-12-08T09:17:03.731Z,9.10
2018-12-08T09:19:32.722Z,9.07
2018-12-08T09:22:01.787Z,9.08
2018-12-08T09:24:30.835Z,9.03
2018-12-08T09:26:59.877Z,9.04
2018-12-08T09:29:28.947Z,9.04
2018-12-08T09:31:57.989Z,8.94
2018-12-08T09:34:27.033Z,8.98
2018-12-08T09:36:56.479Z,9.02
2018-12-08T09:39:25.521Z,9.05
2018-12-08T09:41:54.567Z,9.10
2018-12-08T09:44:23.638Z,9.08
2018-12-08T09:46:52.691Z,9.09
2018-12-08T09:49:21.742Z,9.03
2018-12-08T09:51:50.815Z,9.01
2018-12-08T09:54:19.871Z,8.97
2018-12-08T09:56:48.902Z,8.93
2018-12-08T09:59:18.009Z,8.85
2018-12-08T10:01:47.054Z,8.87
2018-12-08T10:04:16.108Z,8.82
2018-12-08T10:06:45.190Z,8.85
2018-12-08T10:09:14.229Z,8.96
2018-12-08T10:11:43.278Z,9.07
2018-12-08T10:14:12.353Z,9.14
2018-12-08T10:16:41.400Z,9.19
2018-12-08T10:19:10.435Z,9.27
2018-12-08T10:21:39.517Z,9.38
2018-12-08T10:24:08.553Z,9.45
2018-12-08T10:26:37.584Z,9.43
2018-12-08T10:29:06.879Z,9.32
2018-12-08T10:31:35.917Z,9.31
2018-12-08T10:34:04.974Z,9.29
2018-12-08T10:36:34.042Z,9.23
2018-12-08T10:39:03.088Z,9.25
2018-12-08T10:41:32.118Z,9.23
2018-12-08T10:44:01.200Z,9.24
2018-12-08T10:46:30.231Z,9.33
2018-12-08T10:48:59.267Z,9.42
2018-12-08T10:51:28.339Z,9.48
2018-12-08T10:53:57.380Z,9.48
2018-12-08T10:56:26.421Z,9.48
2018-12-08T10:58:55.499Z,9.44
2018-12-08T11:01:24.535Z,9.40
2018-12-08T11:03:53.567Z,9.37
2018-12-08T11:06:22.743Z,9.33
2018-12-08T11:08:51.785Z,9.24
2018-12-08T11:11:20.825Z,9.17
2018-12-08T11:13:49.904Z,9.15
2018-12-08T11:16:18.952Z,9.12
2018-12-08T11:18:47.985Z,9.09
2018-12-08T11:21:17.057Z,9.04
2018-12-08T11:23:46.094Z,9.03
2018-12-08T11:26:15.139Z,8.97
2018-12-08T11:28:44.239Z,8.95
2018-12-08T11:31:13.275Z,8.96
2018-12-08T11:33:42.315Z,8.92
2018-12-08T11:36:11.406Z,8.88
2018-12-08T11:38:40.451Z,8.89
2018-12-08T11:41:09.501Z,8.82
2018-12-08T11:43:38.575Z,8.78
2018-12-08T11:46:07.636Z,8.77
2018-12-08T11:48:36.693Z,8.71
2018-12-08T11:51:05.783Z,8.65
2018-12-08T11:53:34.820Z,8.66
2018-12-08T11:56:03.870Z,8.59
2018-12-08T11:58:33.033Z,8.57
2018-12-08T12:01:02.067Z,8.57
2018-12-08T12:03:31.111Z,8.55
2018-12-08T12:06:00.169Z,8.50
2018-12-08T12:08:29.205Z,8.46
2018-12-08T12:10:58.235Z,8.44
2018-12-08T12:13:27.308Z,8.40
2018-12-08T12:15:56.344Z,8.38
2018-12-08T12:18:25.378Z,8.36
2018-12-08T12:20:54.480Z,8.33
2018-12-08T12:23:23.518Z,8.29
2018-12-08T12:25:52.572Z,8.30
2018-12-08T12:28:21.672Z,8.32
2018-12-08T12:30:50.693Z,8.30
2018-12-08T12:33:19.735Z,8.32
2018-12-08T12:35:52.191Z,8.31
2018-12-08T12:38:21.228Z,8.32
2018-12-08T12:40:50.265Z,8.40
2018-12-08T12:43:19.329Z,8.41
2018-12-08T12:45:48.361Z,8.40
2018-12-08T12:48:17.400Z,8.40
2018-12-08T12:50:46.472Z,8.41
2018-12-08T12:53:15.540Z,8.44
2018-12-08T12:55:44.576Z,8.48
2018-12-08T12:58:13.708Z,8.49
2018-12-08T13:00:42.759Z,8.50
2018-12-08T13:03:11.810Z,8.49
2018-12-08T13:05:40.885Z,8.52
2018-12-08T13:08:09.931Z,8.50
2018-12-08T13:10:38.979Z,8.53
2018-12-08T13:13:08.051Z,8.55
2018-12-08T13:15:37.092Z,8.58
2018-12-08T13:18:06.136Z,8.62
2018-12-08T13:20:35.258Z,8.66
2018-12-08T13:23:04.298Z,8.67
2018-12-08T13:28:39.103Z,8.62
2018-12-08T13:31:08.179Z,8.60
2018-12-08T13:33:37.233Z,8.55
2018-12-08T13:36:06.291Z,8.52
2018-12-08T13:38:35.376Z,8.47
2018-12-08T13:41:04.419Z,8.48
2018-12-08T13:43:33.458Z,8.51
2018-12-08T13:46:02.522Z,8.52
2018-12-08T13:48:31.552Z,8.55
2018-12-08T13:51:00.588Z,8.60
2018-12-08T13:53:36.516Z,8.63
2018-12-08T13:55:58.708Z,8.66
2018-12-08T13:58:27.746Z,8.66
2018-12-08T14:00:56.954Z,8.67
2018-12-08T14:03:26.000Z,8.64
2018-12-08T14:05:55.040Z,8.63
2018-12-08T14:08:24.113Z,8.61
2018-12-08T14:10:53.160Z,8.55
2018-12-08T14:13:22.243Z,8.52
2018-12-08T14:15:51.324Z,8.45
2018-12-08T14:18:20.358Z,8.49
2018-12-08T14:20:49.404Z,8.51
2018-12-08T14:23:18.502Z,8.50
2018-12-08T14:25:47.545Z,8.51
2018-12-08T14:28:16.586Z,8.52
2018-12-08T14:30:45.663Z,8.51
2018-12-08T14:33:15.391Z,8.47
2018-12-08T14:35:44.658Z,8.46
2018-12-08T14:38:13.739Z,8.47
2018-12-08T14:40:42.781Z,8.49
2018-12-08T14:43:11.823Z,8.51
2018-12-08T14:45:41.093Z,8.48
2018-12-08T14:48:10.121Z,8.48
2018-12-08T14:50:39.169Z,8.50
2018-12-08T14:53:08.264Z,8.49
2018-12-08T14:55:37.318Z,8.48
2018-12-08T14:58:06.365Z,8.47
2018-12-08T15:00:35.436Z,8.50
2018-12-08T15:03:04.499Z,8.50
2018-12-08T15:05:33.538Z,8.49
2018-12-08T15:08:02.636Z,8.50
2018-12-08T15:10:31.689Z,8.51
2018-12-08T15:13:00.746Z,8.51
2018-12-08T15:15:29.823Z,8.53
2018-12-08T15:17:58.873Z,8.52
2018-12-08T15:20:27.919Z,8.54
2018-12-08T15:22:57.000Z,8.50
2018-12-08T15:25:26.039Z,8.47
2018-12-08T15:27:55.077Z,8.40
2018-12-08T15:30:24.180Z,8.37
2018-12-08T15:32:53.223Z,8.35
2018-12-08T15:35:34.725Z,8.28
2018-12-08T15:38:03.775Z,8.21
2018-12-08T15:40:32.817Z,8.17
2018-12-08T15:43:01.917Z,8.10
2018-12-08T15:45:30.969Z,8.07
2018-12-08T15:48:00.024Z,8.01
2018-12-08T15:50:29.115Z,7.97
2018-12-08T15:52:58.157Z,7.97
2018-12-08T15:58:30.292Z,7.91
2018-12-08T16:00:59.365Z,7.90
2018-12-08T16:03:28.403Z,7.89
2018-12-08T16:05:57.442Z,7.91
2018-12-08T16:08:26.553Z,7.94
2018-12-08T16:10:55.606Z,7.93
2018-12-08T16:13:24.732Z,7.91
2018-12-08T16:15:53.729Z,7.90
2018-12-08T16:18:22.770Z,7.89
2018-12-08T16:20:51.810Z,7.86
2018-12-08T16:23:20.892Z,7.84
2018-12-08T16:25:49.926Z,7.86
2018-12-08T16:28:18.978Z,7.89
2018-12-08T16:30:48.056Z,7.94
2018-12-08T16:33:17.157Z,7.98
2018-12-08T16:35:46.177Z,7.96
2018-12-08T16:38:15.244Z,7.94
2018-12-08T16:40:44.290Z,7.92
2018-12-08T16:43:13.324Z,7.92
2018-12-08T16:45:42.401Z,7.93
2018-12-08T16:48:11.432Z,7.94
2018-12-08T16:50:41.002Z,7.96
2018-12-08T16:53:09.536Z,7.99
2018-12-08T16:55:42.639Z,8.02
2018-12-08T16:58:11.783Z,8.02
2018-12-08T17:00:40.833Z,8.04
2018-12-08T17:03:09.858Z,8.02
2018-12-08T17:05:38.925Z,8.03
2018-12-08T17:08:07.965Z,8.04
2018-12-08T17:10:37.014Z,8.05
2018-12-08T17:13:06.122Z,8.05
2018-12-08T17:15:35.156Z,8.07
2018-12-08T17:18:04.197Z,8.09
2018-12-08T17:20:33.261Z,8.09
2018-12-08T17:23:02.309Z,8.12
2018-12-08T17:25:31.349Z,8.15
2018-12-08T17:28:00.409Z,8.18
2018-12-08T17:30:29.449Z,8.20
2018-12-08T17:32:58.497Z,8.25
2018-12-08T17:35:28.546Z,8.29
2018-12-08T17:37:57.578Z,8.38
2018-12-08T17:40:26.620Z,8.43
2018-12-08T17:42:55.675Z,8.47
2018-12-08T17:45:24.708Z,8.51
2018-12-08T17:47:53.758Z,8.56
2018-12-08T17:50:22.835Z,8.60
2018-12-08T17:52:51.867Z,8.61
2018-12-08T17:55:20.915Z,8.61
2018-12-08T17:57:50.016Z,8.56
2018-12-08T18:00:19.063Z,8.56
2018-12-08T18:02:48.105Z,8.56
2018-12-08T18:05:17.172Z,8.54
2018-12-08T18:07:46.217Z,8.49
2018-12-08T18:10:15.248Z,8.47
2018-12-08T18:12:44.316Z,8.40
2018-12-08T18:15:13.338Z,8.37
2018-12-08T18:17:42.371Z,8.32
2018-12-08T18:20:11.485Z,8.28
2018-12-08T18:22:40.576Z,8.26
2018-12-08T18:25:25.595Z,8.17
2018-12-08T18:27:54.625Z,8.15
2018-12-08T18:30:23.681Z,8.18
2018-12-08T18:32:52.768Z,8.16
2018-12-08T18:35:21.822Z,8.18
2018-12-08T18:37:50.859Z,8.23
2018-12-08T18:40:20.057Z,8.29
2018-12-08T18:42:49.056Z,8.36
2018-12-08T18:45:18.102Z,8.42
2018-12-08T18:47:47.176Z,8.48
2018-12-08T18:50:16.217Z,8.51
2018-12-08T18:52:45.252Z,8.56
2018-12-08T18:55:14.357Z,8.60
2018-12-08T18:57:43.391Z,8.64
2018-12-08T19:00:12.423Z,8.70
2018-12-08T19:02:41.517Z,8.72
2018-12-08T19:05:22.008Z,8.74
2018-12-08T19:07:51.156Z,8.77
2018-12-08T19:10:20.168Z,8.79
2018-12-08T19:12:49.282Z,8.82
2018-12-08T19:15:18.338Z,8.83
2018-12-08T19:17:47.378Z,8.85
2018-12-08T19:20:16.418Z,8.83
2018-12-08T19:22:45.498Z,8.84
2018-12-08T19:28:30.414Z,8.88
2018-12-08T19:30:59.328Z,8.89
2018-12-08T19:33:28.353Z,8.90
2018-12-08T19:36:10.596Z,8.91
2018-12-08T19:38:39.626Z,8.90
2018-12-08T19:41:08.664Z,8.93
2018-12-08T19:43:37.827Z,8.94
2018-12-08T19:46:06.858Z,8.98
2018-12-08T19:48:35.895Z,8.98
2018-12-08T19:51:04.953Z,8.97
2018-12-08T19:53:34.004Z,8.96
2018-12-08T19:56:03.076Z,9.00
2018-12-08T19:58:32.143Z,8.99
2018-12-08T20:01:01.183Z,9.00
2018-12-08T20:03:30.228Z,8.98
2018-12-08T20:05:59.325Z,8.98
2018-12-08T20:08:28.365Z,8.99
2018-12-08T20:10:57.408Z,8.98
2018-12-08T20:13:26.471Z,8.96
2018-12-08T20:16:14.220Z,8.98
2018-12-08T20:18:43.279Z,8.99
2018-12-08T20:21:12.378Z,8.99
2018-12-08T20:23:41.463Z,8.98
2018-12-08T20:26:10.585Z,8.93
2018-12-08T20:28:39.612Z,8.91
2018-12-08T20:31:08.658Z,8.87
2018-12-08T20:33:37.728Z,8.87
2018-12-08T20:36:06.796Z,8.88
2018-12-08T20:38:35.846Z,8.83
2018-12-08T20:41:04.952Z,8.80
2018-12-08T20:43:34.034Z,8.80
2018-12-08T20:46:03.315Z,8.77
2018-12-08T20:48:32.504Z,8.72
2018-12-08T20:51:01.553Z,8.71
2018-12-08T20:53:30.586Z,8.69
2018-12-08T20:55:59.662Z,8.65
2018-12-08T20:58:28.710Z,8.64
2018-12-08T21:00:57.756Z,8.63
2018-12-08T21:03:26.822Z,8.57
2018-12-08T21:05:55.868Z,8.52
2018-12-08T21:08:24.915Z,8.47
2018-12-08T21:10:53.996Z,8.46
2018-12-08T21:13:23.052Z,8.43
2018-12-08T21:15:59.304Z,8.44
2018-12-08T21:18:28.347Z,8.50
2018-12-08T21:20:57.383Z,8.52
2018-12-08T21:23:27.163Z,8.52
2018-12-08T21:25:55.503Z,8.53
2018-12-08T21:28:24.547Z,8.57
2018-12-08T21:30:53.651Z,8.62
2018-12-08T21:33:22.689Z,8.66
2018-12-08T21:35:51.729Z,8.71
2018-12-08T21:38:20.795Z,8.70
2018-12-08T21:40:49.856Z,8.69
2018-12-08T21:43:18.899Z,8.69
2018-12-08T21:45:47.999Z,8.69
2018-12-08T21:48:17.028Z,8.67
2018-12-08T21:50:46.068Z,8.68
2018-12-08T21:53:15.174Z,8.65
2018-12-08T21:55:44.194Z,8.62
2018-12-08T21:58:13.243Z,8.60
2018-12-08T22:00:42.339Z,8.56
2018-12-08T22:03:11.364Z,8.56
2018-12-08T22:05:40.394Z,8.61
2018-12-08T22:08:09.447Z,8.63
2018-12-08T22:10:38.477Z,8.69
2018-12-08T22:13:07.565Z,8.70
2018-12-08T22:15:36.639Z,8.66
2018-12-08T22:18:05.685Z,8.64
2018-12-08T22:20:34.746Z,8.61
2018-12-08T22:23:03.816Z,8.58
2018-12-08T22:25:36.841Z,8.58
2018-12-08T22:28:05.901Z,8.59
2018-12-08T22:30:34.923Z,8.59
2018-12-08T22:33:03.973Z,8.58
2018-12-08T22:35:33.347Z,8.60
2018-12-08T22:38:02.379Z,8.60
2018-12-08T22:40:31.399Z,8.60
2018-12-08T22:43:00.467Z,8.61
2018-12-08T22:45:29.499Z,8.60
2018-12-08T22:47:58.544Z,8.63
2018-12-08T22:50:27.632Z,8.67
2018-12-08T22:52:56.658Z,8.67
2018-12-08T22:55:25.703Z,8.72
2018-12-08T22:57:54.871Z,8.75
2018-12-08T23:00:31.860Z,8.77
2018-12-08T23:03:00.960Z,8.81
2018-12-08T23:05:50.457Z,8.84
2018-12-08T23:08:19.529Z,8.84
2018-12-08T23:10:48.557Z,8.88
2018-12-08T23:13:17.593Z,8.88
2018-12-08T23:15:46.671Z,8.92
2018-12-08T23:18:15.802Z,8.98
2018-12-08T23:20:44.853Z,9.02
2018-12-08T23:23:13.923Z,9.02
2018-12-08T23:25:42.961Z,9.02
2018-12-08T23:28:11.981Z,9.05
2018-12-08T23:30:41.058Z,9.04
2018-12-08T23:33:10.079Z,9.04
2018-12-08T23:35:39.124Z,9.09
2018-12-08T23:38:08.295Z,9.06
2018-12-08T23:40:37.365Z,9.06
2018-12-08T23:43:06.398Z,9.04
2018-12-08T23:48:44.510Z,9.00
2018-12-08T23:51:13.577Z,9.02
2018-12-08T23:53:42.609Z,8.99
2018-12-08T23:56:11.703Z,9.02
2018-12-08T23:58:40.787Z,9.00
